createdAt,value
2017-08-15T00:00:18.838Z,0
2017-08-15T00:01:19.417Z,0
2017-08-15T00:02:19.994Z,0
2017-08-15T00:03:20.573Z,0
2017-08-15T00:04:21.151Z,0
2017-08-15T00:05:21.728Z,0
2017-08-15T00:06:22.305Z,0
2017-08-15T00:07:22.883Z,0
2017-08-15T00:08:23.459Z,0
2017-08-15T00:09:24.039Z,0
2017-08-15T00:10:24.614Z,0
2017-08-15T00:11:25.204Z,0
2017-08-15T00:12:25.782Z,0
2017-08-15T00:13:26.359Z,0
2017-08-15T00:14:26.938Z,0
2017-08-15T00:15:27.514Z,0
2017-08-15T00:16:28.093Z,0
2017-08-15T00:17:28.670Z,0
2017-08-15T00:18:29.246Z,0
2017-08-15T00:19:29.823Z,0
2017-08-15T00:20:30.401Z,0
2017-08-15T00:21:30.977Z,0
2017-08-15T00:22:31.555Z,0
2017-08-15T00:23:32.131Z,0
2017-08-15T00:24:32.707Z,0
2017-08-15T00:25:33.296Z,0
2017-08-15T00:26:33.885Z,0
2017-08-15T00:27:34.462Z,0
2017-08-15T00:28:35.040Z,0
2017-08-15T00:29:35.614Z,0
2017-08-15T00:30:36.192Z,0
2017-08-15T00:31:36.768Z,0
2017-08-15T00:32:37.358Z,0
2017-08-15T00:33:37.934Z,0
2017-08-15T00:34:38.512Z,0
2017-08-15T00:35:39.088Z,0
2017-08-15T00:36:39.667Z,0
2017-08-15T00:37:40.244Z,0
2017-08-15T00:38:40.820Z,0
2017-08-15T00:39:41.409Z,0
2017-08-15T00:40:41.987Z,0
2017-08-15T00:41:42.565Z,0
2017-08-15T00:42:43.141Z,0
2017-08-15T00:43:43.721Z,0
2017-08-15T00:44:44.301Z,0
2017-08-15T00:45:44.874Z,0
2017-08-15T00:46:45.450Z,0
2017-08-15T00:47:46.027Z,0
2017-08-15T00:48:46.604Z,0
2017-08-15T00:49:47.180Z,0
2017-08-15T00:50:47.757Z,0
2017-08-15T00:51:48.346Z,0
2017-08-15T00:52:48.923Z,0
2017-08-15T00:53:49.500Z,0
2017-08-15T00:54:50.080Z,0
2017-08-15T00:55:50.656Z,0
2017-08-15T00:56:51.234Z,0
2017-08-15T00:57:51.811Z,0
2017-08-15T00:58:52.388Z,0
2017-08-15T00:59:52.964Z,0
2017-08-15T01:00:53.541Z,0
2017-08-15T01:01:54.117Z,0
2017-08-15T01:02:54.705Z,0
2017-08-15T01:03:55.285Z,0
2017-08-15T01:04:55.876Z,0
2017-08-15T01:05:56.450Z,0
2017-08-15T01:06:57.029Z,0
2017-08-15T01:07:57.617Z,0
2017-08-15T01:08:58.193Z,0
2017-08-15T01:09:58.770Z,0
2017-08-15T01:10:59.344Z,0
2017-08-15T01:11:59.924Z,0
2017-08-15T01:13:00.497Z,0
2017-08-15T01:14:01.074Z,0
2017-08-15T01:15:01.649Z,0
2017-08-15T01:16:02.228Z,0
2017-08-15T01:17:02.803Z,0
2017-08-15T01:18:03.380Z,0
2017-08-15T01:19:03.955Z,0
2017-08-15T01:20:04.531Z,0
2017-08-15T01:21:05.109Z,0
2017-08-15T01:22:05.687Z,0
2017-08-15T01:23:06.260Z,0
2017-08-15T01:24:06.837Z,0
2017-08-15T01:25:07.413Z,0
2017-08-15T01:26:07.990Z,0
2017-08-15T01:27:08.566Z,0
2017-08-15T01:28:09.142Z,0
2017-08-15T01:29:09.719Z,0
2017-08-15T01:30:10.295Z,0
2017-08-15T01:31:10.883Z,0
2017-08-15T01:32:11.461Z,0
2017-08-15T01:33:12.048Z,0
2017-08-15T01:34:12.625Z,0
2017-08-15T01:35:13.204Z,0
2017-08-15T01:36:13.781Z,0
2017-08-15T01:37:14.360Z,0
2017-08-15T01:38:14.936Z,0
2017-08-15T01:39:15.514Z,0
2017-08-15T01:40:16.090Z,0
2017-08-15T01:41:16.667Z,0
2017-08-15T01:42:17.249Z,0
2017-08-15T01:43:17.822Z,0
2017-08-15T01:44:18.398Z,0
2017-08-15T01:45:18.977Z,0
2017-08-15T01:46:19.551Z,0
2017-08-15T01:47:20.128Z,0
2017-08-15T01:48:20.705Z,0
2017-08-15T01:49:21.281Z,0
2017-08-15T01:50:21.857Z,0
2017-08-15T01:51:22.438Z,0
2017-08-15T01:52:23.011Z,0
2017-08-15T01:53:23.587Z,0
2017-08-15T01:54:24.163Z,0
2017-08-15T01:55:24.739Z,0
2017-08-15T01:56:25.316Z,0
2017-08-15T01:57:25.891Z,0
2017-08-15T01:58:26.484Z,0
2017-08-15T01:59:27.058Z,0
2017-08-15T02:00:27.636Z,0
2017-08-15T02:01:28.212Z,0
2017-08-15T02:02:28.789Z,0
2017-08-15T02:03:29.365Z,0
2017-08-15T02:04:29.942Z,0
2017-08-15T02:05:30.518Z,0
2017-08-15T02:06:31.113Z,0
2017-08-15T02:07:31.696Z,0
2017-08-15T02:08:32.273Z,0
2017-08-15T02:09:32.848Z,0
2017-08-15T02:10:33.425Z,0
2017-08-15T02:11:34.007Z,0
2017-08-15T02:12:34.574Z,0
2017-08-15T02:13:35.154Z,0
2017-08-15T02:14:35.725Z,0
2017-08-15T02:15:36.302Z,0
2017-08-15T02:16:36.880Z,0
2017-08-15T02:17:37.455Z,0
2017-08-15T02:18:38.032Z,0
2017-08-15T02:19:38.609Z,0
2017-08-15T02:20:39.186Z,0
2017-08-15T02:21:39.761Z,0
2017-08-15T02:22:40.339Z,0
2017-08-15T02:23:40.916Z,0
2017-08-15T02:24:41.496Z,0
2017-08-15T02:25:42.071Z,0
2017-08-15T02:26:42.659Z,0
2017-08-15T02:27:43.234Z,0
2017-08-15T02:28:43.810Z,0
2017-08-15T02:29:44.386Z,0
2017-08-15T02:30:44.961Z,0
2017-08-15T02:31:45.537Z,0
2017-08-15T02:32:46.114Z,0
2017-08-15T02:33:46.691Z,0
2017-08-15T02:34:47.263Z,0
2017-08-15T02:35:47.840Z,0
2017-08-15T02:36:48.416Z,0
2017-08-15T02:37:48.990Z,0
2017-08-15T02:38:49.567Z,0
2017-08-15T02:39:50.143Z,0
2017-08-15T02:40:50.719Z,0
2017-08-15T02:41:51.318Z,0
2017-08-15T02:42:51.870Z,0
2017-08-15T02:43:52.447Z,0
2017-08-15T02:44:53.023Z,0
2017-08-15T02:45:53.601Z,0
2017-08-15T02:46:54.177Z,0
2017-08-15T02:47:54.751Z,0
2017-08-15T02:48:55.327Z,0
2017-08-15T02:49:55.903Z,0
2017-08-15T02:50:56.483Z,0
2017-08-15T02:51:57.056Z,0
2017-08-15T02:52:57.631Z,0
2017-08-15T02:53:58.208Z,0
2017-08-15T02:54:58.783Z,0
2017-08-15T02:55:59.359Z,0
2017-08-15T02:56:59.936Z,0
2017-08-15T02:58:00.511Z,0
2017-08-15T02:59:01.088Z,0
2017-08-15T03:00:01.666Z,0
2017-08-15T03:01:02.254Z,0
2017-08-15T03:02:02.831Z,0
2017-08-15T03:03:03.407Z,0
2017-08-15T03:04:03.984Z,0
2017-08-15T03:05:04.560Z,0
2017-08-15T03:06:05.137Z,0
2017-08-15T03:07:05.713Z,0
2017-08-15T03:08:06.289Z,0
2017-08-15T03:09:06.865Z,0
2017-08-15T03:10:07.440Z,0
2017-08-15T03:11:08.016Z,0
2017-08-15T03:12:08.593Z,0
2017-08-15T03:13:09.167Z,0
2017-08-15T03:14:09.744Z,0
2017-08-15T03:15:10.319Z,0
2017-08-15T03:16:10.895Z,0
2017-08-15T03:17:11.470Z,0
2017-08-15T03:18:12.048Z,0
2017-08-15T03:19:12.635Z,0
2017-08-15T03:20:13.212Z,0
2017-08-15T03:21:13.788Z,0
2017-08-15T03:22:14.364Z,0
2017-08-15T03:23:14.942Z,0
2017-08-15T03:24:15.518Z,0
2017-08-15T03:25:16.095Z,0
2017-08-15T03:26:16.671Z,0
2017-08-15T03:27:17.247Z,0
2017-08-15T03:28:17.836Z,0
2017-08-15T03:29:18.414Z,0
2017-08-15T03:30:18.994Z,0
2017-08-15T03:31:19.569Z,0
2017-08-15T03:32:20.146Z,0
2017-08-15T03:33:20.723Z,0
2017-08-15T03:34:21.301Z,0
2017-08-15T03:35:21.876Z,0
2017-08-15T03:36:22.452Z,0
2017-08-15T03:37:23.028Z,0
2017-08-15T03:38:23.602Z,0
2017-08-15T03:39:24.180Z,0
2017-08-15T03:40:24.755Z,0
2017-08-15T03:41:25.331Z,0
2017-08-15T03:42:25.909Z,0
2017-08-15T03:43:26.494Z,0
2017-08-15T03:44:27.071Z,0
2017-08-15T03:45:27.649Z,0
2017-08-15T03:46:28.225Z,0
2017-08-15T03:47:28.814Z,0
2017-08-15T03:48:29.392Z,0
2017-08-15T03:49:29.968Z,0
2017-08-15T03:50:30.544Z,0
2017-08-15T03:51:31.122Z,0
2017-08-15T03:52:31.699Z,0
2017-08-15T03:53:32.302Z,0
2017-08-15T03:54:32.852Z,0
2017-08-15T03:55:33.427Z,0
2017-08-15T03:56:34.004Z,0
2017-08-15T03:57:34.580Z,0
2017-08-15T03:58:35.159Z,0
2017-08-15T03:59:35.733Z,0
2017-08-15T04:00:36.310Z,0
2017-08-15T04:01:36.889Z,0
2017-08-15T04:02:37.475Z,0
2017-08-15T04:03:38.063Z,0
2017-08-15T04:04:38.651Z,0
2017-08-15T04:05:39.227Z,0
2017-08-15T04:06:39.805Z,0
2017-08-15T04:07:40.379Z,0
2017-08-15T04:08:40.956Z,0
2017-08-15T04:09:41.531Z,0
2017-08-15T04:10:42.109Z,0
2017-08-15T04:11:42.683Z,0
2017-08-15T04:12:43.263Z,0
2017-08-15T04:13:43.852Z,0
2017-08-15T04:14:44.430Z,0
2017-08-15T04:15:45.009Z,0
2017-08-15T04:16:45.585Z,0
2017-08-15T04:17:46.161Z,0
2017-08-15T04:18:46.742Z,0
2017-08-15T04:19:47.314Z,0
2017-08-15T04:20:47.891Z,0
2017-08-15T04:21:48.468Z,0
2017-08-15T04:22:49.050Z,0
2017-08-15T04:23:49.624Z,0
2017-08-15T04:24:50.206Z,0
2017-08-15T04:25:50.780Z,0
2017-08-15T04:26:51.365Z,0
2017-08-15T04:27:51.935Z,0
2017-08-15T04:28:52.511Z,0
2017-08-15T04:29:53.087Z,0
2017-08-15T04:30:53.664Z,0
2017-08-15T04:31:54.240Z,0
2017-08-15T04:32:54.816Z,0
2017-08-15T04:33:55.394Z,0
2017-08-15T04:34:55.970Z,0
2017-08-15T04:35:56.561Z,0
2017-08-15T04:36:57.145Z,0
2017-08-15T04:37:57.713Z,0
2017-08-15T04:38:58.301Z,0
2017-08-15T04:39:58.876Z,0
2017-08-15T04:40:59.455Z,0
2017-08-15T04:42:00.032Z,0
2017-08-15T04:43:00.609Z,0
2017-08-15T04:44:01.185Z,0
2017-08-15T04:45:01.773Z,0
2017-08-15T04:46:02.357Z,0
2017-08-15T04:47:02.940Z,0
2017-08-15T04:48:03.519Z,0
2017-08-15T04:49:04.100Z,5
2017-08-15T04:50:04.677Z,5
2017-08-15T04:51:05.265Z,5
2017-08-15T04:52:05.847Z,5
2017-08-15T04:53:06.425Z,5
2017-08-15T04:54:07.004Z,5
2017-08-15T04:55:07.581Z,5
2017-08-15T04:56:08.159Z,5
2017-08-15T04:57:08.737Z,5
2017-08-15T04:58:09.315Z,5
2017-08-15T04:59:09.895Z,5
2017-08-15T05:00:10.472Z,5
2017-08-15T05:01:11.052Z,5
2017-08-15T05:02:11.629Z,5
2017-08-15T05:03:12.207Z,5
2017-08-15T05:04:12.785Z,5
2017-08-15T05:05:13.362Z,5
2017-08-15T05:06:13.952Z,5
2017-08-15T05:07:14.529Z,5
2017-08-15T05:08:15.106Z,5
2017-08-15T05:09:15.683Z,5
2017-08-15T05:10:16.260Z,5
2017-08-15T05:11:16.856Z,5
2017-08-15T05:12:17.431Z,5
2017-08-15T05:13:18.008Z,5
2017-08-15T05:14:18.588Z,5
2017-08-15T05:15:19.165Z,5
2017-08-15T05:16:19.745Z,5
2017-08-15T05:17:20.321Z,5
2017-08-15T05:18:20.901Z,5
2017-08-15T05:19:21.480Z,10
2017-08-15T05:20:22.065Z,10
2017-08-15T05:21:22.642Z,10
2017-08-15T05:22:23.219Z,10
2017-08-15T05:23:23.800Z,10
2017-08-15T05:24:24.379Z,10
2017-08-15T05:25:24.957Z,10
2017-08-15T05:26:25.739Z,10
2017-08-15T05:27:26.316Z,10
2017-08-15T05:28:26.895Z,10
2017-08-15T05:29:27.475Z,10
2017-08-15T05:30:28.056Z,10
2017-08-15T05:31:28.649Z,10
2017-08-15T05:32:29.229Z,10
2017-08-15T05:33:29.810Z,10
2017-08-15T05:34:30.388Z,10
2017-08-15T05:35:30.967Z,10
2017-08-15T05:36:31.647Z,10
2017-08-15T05:37:32.227Z,10
2017-08-15T05:38:32.804Z,10
2017-08-15T05:39:33.385Z,10
2017-08-15T05:40:33.963Z,10
2017-08-15T05:41:34.544Z,10
2017-08-15T05:42:35.123Z,10
2017-08-15T05:43:35.704Z,10
2017-08-15T05:44:36.285Z,10
2017-08-15T05:45:36.863Z,10
2017-08-15T05:46:37.443Z,10
2017-08-15T05:47:38.021Z,15
2017-08-15T05:48:38.604Z,15
2017-08-15T05:49:39.183Z,15
2017-08-15T05:50:39.765Z,15
2017-08-15T05:51:40.356Z,15
2017-08-15T05:52:40.948Z,15
2017-08-15T05:53:41.528Z,15
2017-08-15T05:54:42.106Z,15
2017-08-15T05:55:42.687Z,15
2017-08-15T05:56:43.266Z,15
2017-08-15T05:57:43.845Z,15
2017-08-15T05:58:44.425Z,15
2017-08-15T05:59:45.006Z,15
2017-08-15T06:00:45.585Z,15
2017-08-15T06:01:46.164Z,15
2017-08-15T06:02:46.743Z,20
2017-08-15T06:03:47.327Z,20
2017-08-15T06:04:47.904Z,20
2017-08-15T06:05:48.484Z,15
2017-08-15T06:06:49.062Z,20
2017-08-15T06:07:49.642Z,20
2017-08-15T06:08:50.232Z,20
2017-08-15T06:09:50.811Z,15
2017-08-15T06:10:51.389Z,15
2017-08-15T06:11:51.971Z,15
2017-08-15T06:12:52.552Z,15
2017-08-15T06:13:53.132Z,15
2017-08-15T06:14:53.711Z,15
2017-08-15T06:15:54.292Z,15
2017-08-15T06:16:54.882Z,20
2017-08-15T06:17:55.461Z,20
2017-08-15T06:18:56.041Z,20
2017-08-15T06:19:56.622Z,15
2017-08-15T06:20:57.222Z,20
2017-08-15T06:21:57.782Z,15
2017-08-15T06:22:58.361Z,20
2017-08-15T06:23:58.940Z,15
2017-08-15T06:24:59.521Z,15
2017-08-15T06:26:00.101Z,20
2017-08-15T06:27:00.681Z,20
2017-08-15T06:28:01.261Z,20
2017-08-15T06:29:01.839Z,20
2017-08-15T06:30:02.420Z,15
2017-08-15T06:31:03.000Z,15
2017-08-15T06:32:03.582Z,20
2017-08-15T06:33:04.164Z,20
2017-08-15T06:34:04.740Z,20
2017-08-15T06:35:05.319Z,20
2017-08-15T06:36:05.900Z,20
2017-08-15T06:37:06.480Z,20
2017-08-15T06:38:07.059Z,20
2017-08-15T06:39:07.639Z,20
2017-08-15T06:40:08.233Z,20
2017-08-15T06:41:08.811Z,15
2017-08-15T06:42:09.404Z,20
2017-08-15T06:43:09.986Z,20
2017-08-15T06:44:10.566Z,20
2017-08-15T06:45:11.145Z,20
2017-08-15T06:46:11.752Z,20
2017-08-15T06:47:12.307Z,20
2017-08-15T06:48:12.887Z,20
2017-08-15T06:49:13.466Z,20
2017-08-15T06:50:14.060Z,25
2017-08-15T06:51:14.640Z,25
2017-08-15T06:52:15.233Z,25
2017-08-15T06:53:15.813Z,25
2017-08-15T06:54:16.392Z,25
2017-08-15T06:55:16.986Z,20
2017-08-15T06:56:17.578Z,20
2017-08-15T06:57:18.157Z,20
2017-08-15T06:58:18.739Z,15
2017-08-15T06:59:19.318Z,15
2017-08-15T07:00:19.898Z,15
2017-08-15T07:01:20.481Z,15
2017-08-15T07:02:21.061Z,20
2017-08-15T07:03:21.642Z,25
2017-08-15T07:04:22.221Z,20
2017-08-15T07:05:22.800Z,20
2017-08-15T07:06:23.383Z,20
2017-08-15T07:07:23.964Z,20
2017-08-15T07:08:24.545Z,20
2017-08-15T07:09:25.135Z,20
2017-08-15T07:10:25.706Z,20
2017-08-15T07:11:26.288Z,25
2017-08-15T07:12:26.872Z,30
2017-08-15T07:13:27.463Z,30
2017-08-15T07:14:28.043Z,30
2017-08-15T07:15:28.625Z,25
2017-08-15T07:16:29.205Z,30
2017-08-15T07:17:29.784Z,25
2017-08-15T07:18:30.365Z,20
2017-08-15T07:19:30.945Z,20
2017-08-15T07:20:31.527Z,20
2017-08-15T07:21:32.108Z,20
2017-08-15T07:22:32.689Z,25
2017-08-15T07:23:33.269Z,25
2017-08-15T07:24:33.851Z,20
2017-08-15T07:25:34.438Z,25
2017-08-15T07:26:35.014Z,30
2017-08-15T07:27:35.594Z,30
2017-08-15T07:28:36.174Z,30
2017-08-15T07:29:36.755Z,30
2017-08-15T07:30:37.337Z,30
2017-08-15T07:31:37.919Z,30
2017-08-15T07:32:38.499Z,30
2017-08-15T07:33:39.079Z,30
2017-08-15T07:34:39.659Z,30
2017-08-15T07:35:40.240Z,30
2017-08-15T07:36:40.822Z,30
2017-08-15T07:37:41.403Z,30
2017-08-15T07:38:41.982Z,30
2017-08-15T07:39:42.563Z,30
2017-08-15T07:40:43.144Z,30
2017-08-15T07:41:43.727Z,30
2017-08-15T07:42:44.308Z,30
2017-08-15T07:43:44.891Z,30
2017-08-15T07:44:45.473Z,30
2017-08-15T07:45:46.054Z,30
2017-08-15T07:46:46.646Z,30
2017-08-15T07:47:47.227Z,30
2017-08-15T07:48:47.808Z,30
2017-08-15T07:49:48.403Z,30
2017-08-15T07:50:48.983Z,30
2017-08-15T07:51:49.563Z,30
2017-08-15T07:52:50.145Z,30
2017-08-15T07:53:50.727Z,30
2017-08-15T07:54:51.308Z,35
2017-08-15T07:55:51.889Z,35
2017-08-15T07:56:52.469Z,35
2017-08-15T07:57:53.053Z,30
2017-08-15T07:58:53.634Z,35
2017-08-15T07:59:54.217Z,35
2017-08-15T08:00:54.797Z,35
2017-08-15T08:01:55.378Z,35
2017-08-15T08:02:55.959Z,35
2017-08-15T08:03:56.541Z,35
2017-08-15T08:04:57.123Z,35
2017-08-15T08:05:57.706Z,35
2017-08-15T08:06:58.298Z,35
2017-08-15T08:07:58.881Z,30
2017-08-15T08:08:59.463Z,30
2017-08-15T08:10:00.058Z,30
2017-08-15T08:11:00.639Z,30
2017-08-15T08:12:01.220Z,30
2017-08-15T08:13:01.801Z,30
2017-08-15T08:14:02.384Z,35
2017-08-15T08:15:02.965Z,35
2017-08-15T08:16:03.547Z,35
2017-08-15T08:17:04.130Z,35
2017-08-15T08:18:04.710Z,40
2017-08-15T08:19:05.306Z,35
2017-08-15T08:20:05.888Z,40
2017-08-15T08:21:06.470Z,40
2017-08-15T08:22:07.054Z,40
2017-08-15T08:23:07.635Z,40
2017-08-15T08:24:08.220Z,40
2017-08-15T08:25:08.799Z,40
2017-08-15T08:26:09.381Z,35
2017-08-15T08:27:09.963Z,40
2017-08-15T08:28:10.545Z,40
2017-08-15T08:29:11.130Z,40
2017-08-15T08:30:11.710Z,40
2017-08-15T08:31:12.292Z,40
2017-08-15T08:32:12.876Z,40
2017-08-15T08:33:13.456Z,35
2017-08-15T08:34:14.041Z,35
2017-08-15T08:35:14.623Z,35
2017-08-15T08:36:15.205Z,35
2017-08-15T08:37:16.041Z,35
2017-08-15T08:38:16.632Z,35
2017-08-15T08:39:17.215Z,35
2017-08-15T08:40:17.796Z,35
2017-08-15T08:41:18.379Z,30
2017-08-15T08:42:18.962Z,30
2017-08-15T08:43:19.544Z,30
2017-08-15T08:44:20.127Z,30
2017-08-15T08:45:20.709Z,30
2017-08-15T08:46:21.293Z,30
2017-08-15T08:47:21.875Z,30
2017-08-15T08:48:22.462Z,25
2017-08-15T08:49:23.040Z,25
2017-08-15T08:50:23.621Z,25
2017-08-15T08:51:24.204Z,25
2017-08-15T08:52:24.788Z,25
2017-08-15T08:53:25.370Z,25
2017-08-15T08:54:25.951Z,25
2017-08-15T08:55:26.533Z,25
2017-08-15T08:56:27.115Z,25
2017-08-15T08:57:27.698Z,25
2017-08-15T08:58:28.281Z,25
2017-08-15T08:59:28.863Z,25
2017-08-15T09:00:29.444Z,25
2017-08-15T09:01:30.025Z,30
2017-08-15T09:02:30.607Z,30
2017-08-15T09:03:31.189Z,30
2017-08-15T09:04:31.773Z,30
2017-08-15T09:05:32.358Z,30
2017-08-15T09:06:32.937Z,30
2017-08-15T09:07:33.519Z,30
2017-08-15T09:08:34.098Z,30
2017-08-15T09:09:34.682Z,30
2017-08-15T09:10:35.264Z,35
2017-08-15T09:11:35.847Z,35
2017-08-15T09:12:36.429Z,35
2017-08-15T09:13:37.010Z,35
2017-08-15T09:14:37.594Z,35
2017-08-15T09:15:38.176Z,35
2017-08-15T09:16:38.760Z,35
2017-08-15T09:17:39.342Z,35
2017-08-15T09:18:39.924Z,35
2017-08-15T09:19:40.509Z,35
2017-08-15T09:20:41.091Z,35
2017-08-15T09:21:41.683Z,35
2017-08-15T09:22:42.267Z,35
2017-08-15T09:23:42.850Z,35
2017-08-15T09:24:43.438Z,35
2017-08-15T09:25:44.027Z,35
2017-08-15T09:26:44.609Z,35
2017-08-15T09:27:45.191Z,35
2017-08-15T09:28:45.772Z,35
2017-08-15T09:29:46.356Z,35
2017-08-15T09:30:46.939Z,35
2017-08-15T09:31:47.521Z,35
2017-08-15T09:32:48.101Z,35
2017-08-15T09:33:48.684Z,35
2017-08-15T09:34:49.283Z,35
2017-08-15T09:35:49.873Z,35
2017-08-15T09:36:50.466Z,35
2017-08-15T09:37:51.052Z,30
2017-08-15T09:38:51.631Z,30
2017-08-15T09:39:52.215Z,30
2017-08-15T09:40:52.795Z,30
2017-08-15T09:41:53.375Z,30
2017-08-15T09:42:53.967Z,30
2017-08-15T09:43:54.542Z,30
2017-08-15T09:44:55.138Z,30
2017-08-15T09:45:55.721Z,30
2017-08-15T09:46:56.317Z,35
2017-08-15T09:47:56.899Z,35
2017-08-15T09:48:57.483Z,35
2017-08-15T09:49:58.069Z,35
2017-08-15T09:50:58.647Z,35
2017-08-15T09:51:59.242Z,35
2017-08-15T09:52:59.823Z,30
2017-08-15T09:54:00.405Z,30
2017-08-15T09:55:00.989Z,30
2017-08-15T09:56:01.582Z,30
2017-08-15T09:57:02.156Z,30
2017-08-15T09:58:02.738Z,30
2017-08-15T09:59:03.319Z,30
2017-08-15T10:00:03.903Z,30
2017-08-15T10:01:04.486Z,30
2017-08-15T10:02:05.073Z,30
2017-08-15T10:03:05.653Z,30
2017-08-15T10:04:06.233Z,30
2017-08-15T10:05:06.818Z,25
2017-08-15T10:06:07.401Z,25
2017-08-15T10:07:07.987Z,25
2017-08-15T10:08:08.569Z,25
2017-08-15T10:09:09.150Z,25
2017-08-15T10:10:09.734Z,25
2017-08-15T10:11:10.317Z,25
2017-08-15T10:12:10.903Z,25
2017-08-15T10:13:11.497Z,25
2017-08-15T10:14:12.080Z,25
2017-08-15T10:15:12.675Z,25
2017-08-15T10:16:13.259Z,25
2017-08-15T10:17:13.840Z,25
2017-08-15T10:18:14.425Z,25
2017-08-15T10:19:15.003Z,25
2017-08-15T10:20:15.585Z,25
2017-08-15T10:21:16.169Z,25
2017-08-15T10:22:16.765Z,25
2017-08-15T10:23:17.347Z,25
2017-08-15T10:24:17.932Z,25
2017-08-15T10:25:18.525Z,25
2017-08-15T10:26:19.107Z,25
2017-08-15T10:27:19.690Z,25
2017-08-15T10:28:20.272Z,25
2017-08-15T10:29:20.853Z,25
2017-08-15T10:30:21.437Z,20
2017-08-15T10:31:22.020Z,20
2017-08-15T10:32:22.602Z,20
2017-08-15T10:33:23.185Z,20
2017-08-15T10:34:23.780Z,20
2017-08-15T10:35:24.363Z,20
2017-08-15T10:36:24.949Z,20
2017-08-15T10:37:25.526Z,20
2017-08-15T10:38:26.110Z,20
2017-08-15T10:39:26.692Z,20
2017-08-15T10:40:27.280Z,20
2017-08-15T10:41:27.858Z,20
2017-08-15T10:42:28.441Z,20
2017-08-15T10:43:29.025Z,20
2017-08-15T10:44:29.607Z,20
2017-08-15T10:45:30.190Z,20
2017-08-15T10:46:30.773Z,20
2017-08-15T10:47:31.355Z,20
2017-08-15T10:48:31.939Z,20
2017-08-15T10:49:32.521Z,20
2017-08-15T10:50:33.106Z,20
2017-08-15T10:51:33.687Z,20
2017-08-15T10:52:34.268Z,20
2017-08-15T10:53:34.854Z,25
2017-08-15T10:54:35.434Z,25
2017-08-15T10:55:36.019Z,25
2017-08-15T10:56:36.600Z,25
2017-08-15T10:57:37.182Z,30
2017-08-15T10:58:37.766Z,30
2017-08-15T10:59:38.349Z,30
2017-08-15T11:00:38.934Z,35
2017-08-15T11:01:39.515Z,35
2017-08-15T11:02:40.111Z,35
2017-08-15T11:03:40.697Z,35
2017-08-15T11:04:41.275Z,35
2017-08-15T11:05:41.857Z,35
2017-08-15T11:06:42.443Z,35
2017-08-15T11:07:43.026Z,35
2017-08-15T11:08:43.610Z,35
2017-08-15T11:09:44.192Z,35
2017-08-15T11:10:44.774Z,35
2017-08-15T11:11:45.358Z,35
2017-08-15T11:12:45.941Z,35
2017-08-15T11:13:46.526Z,35
2017-08-15T11:14:47.107Z,35
2017-08-15T11:15:47.690Z,35
2017-08-15T11:16:48.275Z,35
2017-08-15T11:17:48.858Z,35
2017-08-15T11:18:49.443Z,35
2017-08-15T11:19:50.024Z,35
2017-08-15T11:20:50.606Z,35
2017-08-15T11:21:51.190Z,35
2017-08-15T11:22:51.772Z,35
2017-08-15T11:23:52.383Z,35
2017-08-15T11:24:52.979Z,35
2017-08-15T11:25:53.560Z,35
2017-08-15T11:26:54.143Z,35
2017-08-15T11:27:54.726Z,35
2017-08-15T11:28:55.320Z,35
2017-08-15T11:29:55.902Z,35
2017-08-15T11:30:56.487Z,35
2017-08-15T11:31:57.077Z,35
2017-08-15T11:32:57.668Z,35
2017-08-15T11:33:58.251Z,35
2017-08-15T11:34:58.834Z,35
2017-08-15T11:35:59.415Z,35
2017-08-15T11:36:59.997Z,35
2017-08-15T11:38:00.578Z,35
2017-08-15T11:39:01.162Z,35
2017-08-15T11:40:01.745Z,35
2017-08-15T11:41:02.328Z,35
2017-08-15T11:42:02.910Z,35
2017-08-15T11:43:03.505Z,35
2017-08-15T11:44:04.087Z,35
2017-08-15T11:45:04.670Z,35
2017-08-15T11:46:05.252Z,35
2017-08-15T11:47:05.835Z,35
2017-08-15T11:48:06.419Z,35
2017-08-15T11:49:07.001Z,35
2017-08-15T11:50:07.592Z,35
2017-08-15T11:51:08.169Z,35
2017-08-15T11:52:08.764Z,35
2017-08-15T11:53:09.349Z,35
2017-08-15T11:54:09.930Z,35
2017-08-15T11:55:10.514Z,30
2017-08-15T11:56:11.099Z,30
2017-08-15T11:57:11.680Z,35
2017-08-15T11:58:12.264Z,35
2017-08-15T11:59:12.847Z,45
2017-08-15T12:00:13.429Z,45
2017-08-15T12:01:14.015Z,40
2017-08-15T12:02:14.617Z,45
2017-08-15T12:03:15.202Z,45
2017-08-15T12:04:15.784Z,35
2017-08-15T12:05:16.365Z,35
2017-08-15T12:06:16.947Z,40
2017-08-15T12:07:17.532Z,45
2017-08-15T12:08:18.137Z,45
2017-08-15T12:09:18.718Z,45
2017-08-15T12:10:19.303Z,45
2017-08-15T12:11:19.887Z,45
2017-08-15T12:12:20.471Z,35
2017-08-15T12:13:21.056Z,45
2017-08-15T12:14:21.638Z,35
2017-08-15T12:15:22.221Z,40
2017-08-15T12:16:22.804Z,40
2017-08-15T12:17:23.387Z,40
2017-08-15T12:18:23.972Z,45
2017-08-15T12:19:24.556Z,45
2017-08-15T12:20:25.141Z,40
2017-08-15T12:21:25.724Z,40
2017-08-15T12:22:26.311Z,40
2017-08-15T12:23:26.903Z,40
2017-08-15T12:24:27.485Z,40
2017-08-15T12:25:28.070Z,40
2017-08-15T12:26:28.655Z,40
2017-08-15T12:27:29.237Z,40
2017-08-15T12:28:29.821Z,40
2017-08-15T12:29:30.404Z,45
2017-08-15T12:30:30.989Z,45
2017-08-15T12:31:31.575Z,40
2017-08-15T12:32:32.159Z,40
2017-08-15T12:33:32.743Z,45
2017-08-15T12:34:33.326Z,40
2017-08-15T12:35:33.911Z,40
2017-08-15T12:36:34.507Z,40
2017-08-15T12:37:35.093Z,40
2017-08-15T12:38:35.676Z,40
2017-08-15T12:39:36.261Z,40
2017-08-15T12:40:36.845Z,40
2017-08-15T12:41:37.429Z,40
2017-08-15T12:42:38.015Z,40
2017-08-15T12:43:38.601Z,40
2017-08-15T12:44:39.185Z,40
2017-08-15T12:45:39.769Z,40
2017-08-15T12:46:40.354Z,40
2017-08-15T12:47:40.949Z,40
2017-08-15T12:48:41.535Z,40
2017-08-15T12:49:42.119Z,40
2017-08-15T12:50:42.705Z,40
2017-08-15T12:51:43.289Z,40
2017-08-15T12:52:43.874Z,40
2017-08-15T12:53:44.461Z,40
2017-08-15T12:54:45.064Z,40
2017-08-15T12:55:45.647Z,40
2017-08-15T12:56:46.237Z,40
2017-08-15T12:57:46.830Z,45
2017-08-15T12:58:47.433Z,40
2017-08-15T12:59:48.011Z,45
2017-08-15T13:00:48.595Z,45
2017-08-15T13:01:49.180Z,45
2017-08-15T13:02:49.766Z,45
2017-08-15T13:03:50.362Z,45
2017-08-15T13:04:50.948Z,45
2017-08-15T13:05:51.533Z,45
2017-08-15T13:06:52.122Z,25
2017-08-15T13:07:52.715Z,30
2017-08-15T13:08:53.302Z,50
2017-08-15T13:09:53.884Z,50
2017-08-15T13:10:54.468Z,35
2017-08-15T13:11:55.066Z,40
2017-08-15T13:12:55.665Z,25
2017-08-15T13:13:56.247Z,30
2017-08-15T13:14:56.832Z,30
2017-08-15T13:15:57.416Z,30
2017-08-15T13:16:58.002Z,30
2017-08-15T13:17:58.585Z,30
2017-08-15T13:18:59.169Z,35
2017-08-15T13:19:59.767Z,40
2017-08-15T13:21:00.352Z,50
2017-08-15T13:22:00.948Z,50
2017-08-15T13:23:01.533Z,50
2017-08-15T13:24:02.126Z,50
2017-08-15T13:25:02.702Z,50
2017-08-15T13:26:03.287Z,50
2017-08-15T13:27:03.871Z,50
2017-08-15T13:28:04.457Z,50
2017-08-15T13:29:05.042Z,45
2017-08-15T13:30:05.627Z,50
2017-08-15T13:31:06.213Z,50
2017-08-15T13:32:06.797Z,50
2017-08-15T13:33:07.383Z,50
2017-08-15T13:34:07.967Z,40
2017-08-15T13:35:08.553Z,30
2017-08-15T13:36:09.138Z,25
2017-08-15T13:37:09.721Z,25
2017-08-15T13:38:10.304Z,20
2017-08-15T13:39:10.890Z,20
2017-08-15T13:40:11.472Z,20
2017-08-15T13:41:12.058Z,20
2017-08-15T13:42:12.642Z,20
2017-08-15T13:43:13.227Z,20
2017-08-15T13:44:13.810Z,20
2017-08-15T13:45:14.393Z,20
2017-08-15T13:46:14.979Z,20
2017-08-15T13:47:15.563Z,20
2017-08-15T13:48:16.148Z,20
2017-08-15T13:49:16.730Z,20
2017-08-15T13:50:17.314Z,25
2017-08-15T13:51:17.899Z,25
2017-08-15T13:52:18.483Z,25
2017-08-15T13:53:19.069Z,25
2017-08-15T13:54:19.652Z,25
2017-08-15T13:55:20.236Z,25
2017-08-15T13:56:20.821Z,25
2017-08-15T13:57:21.430Z,25
2017-08-15T13:58:21.991Z,25
2017-08-15T13:59:22.573Z,25
2017-08-15T14:00:23.156Z,25
2017-08-15T14:01:23.741Z,30
2017-08-15T14:02:24.328Z,30
2017-08-15T14:03:24.911Z,30
2017-08-15T14:04:25.494Z,30
2017-08-15T14:05:26.080Z,35
2017-08-15T14:06:26.665Z,40
2017-08-15T14:07:27.256Z,40
2017-08-15T14:08:27.836Z,40
2017-08-15T14:09:28.420Z,40
2017-08-15T14:10:29.003Z,35
2017-08-15T14:11:29.589Z,30
2017-08-15T14:12:30.185Z,30
2017-08-15T14:13:30.783Z,30
2017-08-15T14:14:31.366Z,30
2017-08-15T14:15:31.952Z,30
2017-08-15T14:16:32.535Z,30
2017-08-15T14:17:33.121Z,30
2017-08-15T14:18:33.700Z,35
2017-08-15T14:19:34.283Z,35
2017-08-15T14:20:34.870Z,35
2017-08-15T14:21:35.453Z,35
2017-08-15T14:22:36.037Z,35
2017-08-15T14:23:36.619Z,35
2017-08-15T14:24:37.207Z,40
2017-08-15T14:25:37.805Z,45
2017-08-15T14:26:38.399Z,45
2017-08-15T14:27:38.984Z,45
2017-08-15T14:28:39.568Z,55
2017-08-15T14:29:40.153Z,40
2017-08-15T14:30:40.736Z,30
2017-08-15T14:31:41.331Z,25
2017-08-15T14:32:41.916Z,25
2017-08-15T14:33:42.499Z,25
2017-08-15T14:34:43.082Z,25